sensor_id;sensor_type;location;lat;lon;timestamp;pressure;altitude;pressure_sealevel;temperature;humidity
68145;BME280;55400;51.824;-0.196;2023-06-24T00:03:07;101442.66;;;22.02;54.11
68145;BME280;55400;51.824;-0.196;2023-06-24T00:07:07;101439.29000000001;;;21.94;54.63
68145;BME280;55400;51.824;-0.196;2023-06-24T00:11:07;101436.23999999999;;;21.90;54.63
68145;BME280;55400;51.824;-0.196;2023-06-24T00:15:07;101436.23999999999;;;21.85;54.85
68145;BME280;55400;51.824;-0.196;2023-06-24T00:23:07;101428.42000000001;;;21.68;55.23
68145;BME280;55400;51.824;-0.196;2023-06-24T00:27:07;101418.67;;;21.59;55.91
68145;BME280;55400;51.824;-0.196;2023-06-24T00:31:07;101418.67;;;21.57;55.91
68145;BME280;55400;51.824;-0.196;2023-06-24T00:35:07;101413.09;;;21.55;56.03
68145;BME280;55400;51.824;-0.196;2023-06-24T00:39:07;101412.76000000001;;;21.52;56.24
68145;BME280;55400;51.824;-0.196;2023-06-24T00:43:07;101421.59;;;21.46;56.44
68145;BME280;55400;51.824;-0.196;2023-06-24T00:47:08;101415.93000000001;;;21.40;56.82
68145;BME280;55400;51.824;-0.196;2023-06-24T00:51:07;101420.7;;;21.31;56.92
68145;BME280;55400;51.824;-0.196;2023-06-24T00:55:07;101419.67;;;21.19;57.56
68145;BME280;55400;51.824;-0.196;2023-06-24T00:59:07;101418.40999999999;;;21.14;58.14
68145;BME280;55400;51.824;-0.196;2023-06-24T01:03:09;101418.40999999999;;;21.11;58.43
68145;BME280;55400;51.824;-0.196;2023-06-24T01:07:07;101421.41;;;21.08;58.78
68145;BME280;55400;51.824;-0.196;2023-06-24T01:11:07;101420.01000000001;;;20.98;58.56
68145;BME280;55400;51.824;-0.196;2023-06-24T01:15:07;101417.5;;;20.90;59.70
68145;BME280;55400;51.824;-0.196;2023-06-24T01:19:11;101419.51000000001;;;20.85;59.87
68145;BME280;55400;51.824;-0.196;2023-06-24T01:27:13;101405.74;;;20.80;60.39
68145;BME280;55400;51.824;-0.196;2023-06-24T01:35:08;101400.04000000001;;;20.73;60.14
68145;BME280;55400;51.824;-0.196;2023-06-24T01:39:08;101391.62;;;20.69;60.47
68145;BME280;55400;51.824;-0.196;2023-06-24T01:43:08;101391.62;;;20.66;60.54
68145;BME280;55400;51.824;-0.196;2023-06-24T01:47:07;101388.37;;;20.62;60.56
68145;BME280;55400;51.824;-0.196;2023-06-24T01:51:08;101390.97;;;20.54;60.45
68145;BME280;55400;51.824;-0.196;2023-06-24T01:55:08;101396.47;;;20.51;60.79
68145;BME280;55400;51.824;-0.196;2023-06-24T01:59:08;101396.47;;;20.46;60.79
68145;BME280;55400;51.824;-0.196;2023-06-24T02:03:07;101401.25;;;20.37;61.14
68145;BME280;55400;51.824;-0.196;2023-06-24T02:07:07;101397.34;;;20.31;61.12
68145;BME280;55400;51.824;-0.196;2023-06-24T02:11:08;101396.56;;;20.30;61.46
68145;BME280;55400;51.824;-0.196;2023-06-24T02:15:08;101399.19;;;20.29;61.24
68145;BME280;55400;51.824;-0.196;2023-06-24T02:19:07;101402.20000000001;;;20.30;61.54
68145;BME280;55400;51.824;-0.196;2023-06-24T02:23:08;101402.62;;;20.32;61.56
68145;BME280;55400;51.824;-0.196;2023-06-24T02:27:07;101398.61;;;20.28;61.47
68145;BME280;55400;51.824;-0.196;2023-06-24T02:31:08;101408.62;;;20.21;61.75
68145;BME280;55400;51.824;-0.196;2023-06-24T02:35:08;101409.26;;;20.16;61.75
68145;BME280;55400;51.824;-0.196;2023-06-24T02:39:07;101407.75;;;20.11;62.28
68145;BME280;55400;51.824;-0.196;2023-06-24T02:43:07;101407.75;;;20.07;62.28
68145;BME280;55400;51.824;-0.196;2023-06-24T02:47:09;101407.14;;;20.04;62.56
68145;BME280;55400;51.824;-0.196;2023-06-24T02:51:07;101407.03;;;19.99;62.39
68145;BME280;55400;51.824;-0.196;2023-06-24T02:55:08;101406.09;;;19.97;62.76
68145;BME280;55400;51.824;-0.196;2023-06-24T02:59:07;101406.09;;;19.95;62.76
68145;BME280;55400;51.824;-0.196;2023-06-24T03:03:08;101409.64;;;19.94;62.74
68145;BME280;55400;51.824;-0.196;2023-06-24T03:07:07;101409.91;;;19.93;62.77
68145;BME280;55400;51.824;-0.196;2023-06-24T03:11:08;101409.91;;;19.88;62.89
68145;BME280;55400;51.824;-0.196;2023-06-24T03:15:08;101410.22;;;19.80;62.87
68145;BME280;55400;51.824;-0.196;2023-06-24T03:19:08;101410.22;;;19.83;63.08
68145;BME280;55400;51.824;-0.196;2023-06-24T03:27:08;101404.94;;;19.80;62.93
68145;BME280;55400;51.824;-0.196;2023-06-24T03:31:08;101400.19;;;19.75;62.93
68145;BME280;55400;51.824;-0.196;2023-06-24T03:35:08;101398.27;;;19.74;63.08
68145;BME280;55400;51.824;-0.196;2023-06-24T03:39:08;101398.13;;;19.69;63.10
68145;BME280;55400;51.824;-0.196;2023-06-24T03:43:08;101398.13;;;19.62;63.23
68145;BME280;55400;51.824;-0.196;2023-06-24T03:47:08;101396.64;;;19.51;63.24
68145;BME280;55400;51.824;-0.196;2023-06-24T03:51:08;101393.48;;;19.46;63.40
68145;BME280;55400;51.824;-0.196;2023-06-24T03:55:08;101396.12;;;19.43;63.96
68145;BME280;55400;51.824;-0.196;2023-06-24T03:59:08;101396.92;;;19.39;63.84
68145;BME280;55400;51.824;-0.196;2023-06-24T04:03:08;101396.92;;;19.37;63.95
68145;BME280;55400;51.824;-0.196;2023-06-24T04:07:08;101398.95;;;19.34;64.05
68145;BME280;55400;51.824;-0.196;2023-06-24T04:11:08;101398.95;;;19.28;64.03
68145;BME280;55400;51.824;-0.196;2023-06-24T04:15:08;101415.5;;;19.27;64.50
68145;BME280;55400;51.824;-0.196;2023-06-24T04:19:08;101415.5;;;19.22;64.50
68145;BME280;55400;51.824;-0.196;2023-06-24T04:23:08;101412.81999999999;;;19.18;64.84
68145;BME280;55400;51.824;-0.196;2023-06-24T04:27:08;101424.15999999999;;;19.13;65.26
68145;BME280;55400;51.824;-0.196;2023-06-24T04:31:08;101424.67;;;19.11;65.26
68145;BME280;55400;51.824;-0.196;2023-06-24T04:39:08;101424.89;;;19.13;65.25
68145;BME280;55400;51.824;-0.196;2023-06-24T04:43:08;101433.03;;;19.14;65.37
68145;BME280;55400;51.824;-0.196;2023-06-24T04:51:08;101432.04;;;19.12;65.37
68145;BME280;55400;51.824;-0.196;2023-06-24T04:55:08;101432.04;;;19.07;65.37
68145;BME280;55400;51.824;-0.196;2023-06-24T04:59:08;101422.93;;;19.01;65.30
68145;BME280;55400;51.824;-0.196;2023-06-24T05:07:08;101429.40999999999;;;19.02;66.03
68145;BME280;55400;51.824;-0.196;2023-06-24T05:15:08;101428.41;;;19.01;66.15
68145;BME280;55400;51.824;-0.196;2023-06-24T05:19:08;101432.78;;;19.00;66.03
68145;BME280;55400;51.824;-0.196;2023-06-24T05:23:08;101433.06;;;19.01;66.13
68145;BME280;55400;51.824;-0.196;2023-06-24T05:27:08;101436.87999999999;;;19.04;66.19
68145;BME280;55400;51.824;-0.196;2023-06-24T05:31:08;101449.87999999999;;;19.09;66.23
68145;BME280;55400;51.824;-0.196;2023-06-24T05:35:08;101449.87999999999;;;19.08;66.31
68145;BME280;55400;51.824;-0.196;2023-06-24T05:39:08;101444.15000000001;;;19.11;66.35
68145;BME280;55400;51.824;-0.196;2023-06-24T05:43:08;101449.06;;;19.13;66.28
68145;BME280;55400;51.824;-0.196;2023-06-24T05:47:08;101446.28;;;19.15;66.32
68145;BME280;55400;51.824;-0.196;2023-06-24T05:51:08;101446.28;;;19.21;66.48
68145;BME280;55400;51.824;-0.196;2023-06-24T05:55:08;101439.9;;;19.26;66.46
68145;BME280;55400;51.824;-0.196;2023-06-24T06:03:08;101437.84000000001;;;19.29;66.47
68145;BME280;55400;51.824;-0.196;2023-06-24T06:07:08;101435.46;;;19.34;66.52
68145;BME280;55400;51.824;-0.196;2023-06-24T06:11:08;101436.89;;;19.37;66.37
68145;BME280;55400;51.824;-0.196;2023-06-24T06:15:09;101441.35;;;19.45;66.28
68145;BME280;55400;51.824;-0.196;2023-06-24T06:19:08;101437.62000000001;;;19.55;66.56
68145;BME280;55400;51.824;-0.196;2023-06-24T06:23:08;101449.45999999999;;;19.57;66.50
68145;BME280;55400;51.824;-0.196;2023-06-24T06:27:09;101449.7;;;19.59;66.50
68145;BME280;55400;51.824;-0.196;2023-06-24T06:31:08;101449.7;;;19.65;66.86
68145;BME280;55400;51.824;-0.196;2023-06-24T06:35:08;101448.65999999999;;;19.73;66.70
68145;BME280;55400;51.824;-0.196;2023-06-24T06:39:08;101458.98999999999;;;19.82;66.72
68145;BME280;55400;51.824;-0.196;2023-06-24T06:43:08;101459.93999999999;;;19.89;66.16
68145;BME280;55400;51.824;-0.196;2023-06-24T06:51:08;101463.7;;;19.91;66.13
68145;BME280;55400;51.824;-0.196;2023-06-24T06:55:09;101463.09;;;19.92;65.63
68145;BME280;55400;51.824;-0.196;2023-06-24T06:59:08;101466.57;;;19.98;65.89
68145;BME280;55400;51.824;-0.196;2023-06-24T07:03:08;101463.01999999999;;;20.06;66.44
68145;BME280;55400;51.824;-0.196;2023-06-24T07:07:08;101472.31;;;20.07;65.73
68145;BME280;55400;51.824;-0.196;2023-06-24T07:11:08;101466.39;;;20.15;65.44
68145;BME280;55400;51.824;-0.196;2023-06-24T07:15:11;101472.5;;;20.19;65.65
68145;BME280;55400;51.824;-0.196;2023-06-24T07:18:27;101472.5;;;20.19;65.65
68145;BME280;55400;51.824;-0.196;2023-06-24T07:19:08;101476.65;;;20.26;65.65
68145;BME280;55400;51.824;-0.196;2023-06-24T07:23:08;101476.65;;;20.32;65.24
68145;BME280;55400;51.824;-0.196;2023-06-24T07:27:08;101481.3;;;20.36;65.60
68145;BME280;55400;51.824;-0.196;2023-06-24T07:31:08;101479.63;;;20.32;65.55
68145;BME280;55400;51.824;-0.196;2023-06-24T07:35:08;101479.63;;;20.37;66.01
68145;BME280;55400;51.824;-0.196;2023-06-24T07:39:08;101478.95999999999;;;20.41;65.55
68145;BME280;55400;51.824;-0.196;2023-06-24T07:43:08;101475.09;;;20.48;66.11
68145;BME280;55400;51.824;-0.196;2023-06-24T07:47:08;101473.49;;;20.64;65.42
68145;BME280;55400;51.824;-0.196;2023-06-24T07:51:08;101470.33;;;20.81;65.40
68145;BME280;55400;51.824;-0.196;2023-06-24T07:55:08;101462.05;;;21.00;64.25
68145;BME280;55400;51.824;-0.196;2023-06-24T07:59:08;101457.65;;;21.12;64.55
68145;BME280;55400;51.824;-0.196;2023-06-24T08:03:08;101457.65;;;21.20;64.25
68145;BME280;55400;51.824;-0.196;2023-06-24T08:07:08;101457.39;;;21.31;63.75
68145;BME280;55400;51.824;-0.196;2023-06-24T08:11:08;101462.59;;;21.43;63.85
68145;BME280;55400;51.824;-0.196;2023-06-24T08:15:09;101462.53;;;21.50;63.54
68145;BME280;55400;51.824;-0.196;2023-06-24T08:19:08;101459.83;;;21.58;63.51
68145;BME280;55400;51.824;-0.196;2023-06-24T08:23:08;101457.12;;;21.63;62.94
68145;BME280;55400;51.824;-0.196;2023-06-24T08:27:09;101460.33;;;21.55;63.25
68145;BME280;55400;51.824;-0.196;2023-06-24T08:35:09;101461.72;;;21.54;63.82
68145;BME280;55400;51.824;-0.196;2023-06-24T08:39:08;101461.72;;;21.56;64.30
68145;BME280;55400;51.824;-0.196;2023-06-24T08:43:09;101464.70000000001;;;21.55;63.20
68145;BME280;55400;51.824;-0.196;2023-06-24T08:47:08;101474.5;;;21.50;63.64
68145;BME280;55400;51.824;-0.196;2023-06-24T08:51:09;101466.18;;;21.58;63.93
68145;BME280;55400;51.824;-0.196;2023-06-24T08:55:10;101466.18;;;21.70;64.58
68145;BME280;55400;51.824;-0.196;2023-06-24T08:59:09;101464.77;;;21.81;64.21
68145;BME280;55400;51.824;-0.196;2023-06-24T09:03:09;101460.05;;;21.92;64.01
68145;BME280;55400;51.824;-0.196;2023-06-24T09:07:09;101454.31999999999;;;22.01;63.61
68145;BME280;55400;51.824;-0.196;2023-06-24T09:11:09;101454.31999999999;;;21.98;64.59
68145;BME280;55400;51.824;-0.196;2023-06-24T09:15:09;101455.5;;;21.92;64.42
68145;BME280;55400;51.824;-0.196;2023-06-24T09:19:09;101450.45;;;21.93;64.34
68145;BME280;55400;51.824;-0.196;2023-06-24T09:23:09;101442.90999999999;;;22.13;64.77
68145;BME280;55400;51.824;-0.196;2023-06-24T09:27:09;101442.90999999999;;;22.31;63.87
68145;BME280;55400;51.824;-0.196;2023-06-24T09:31:09;101440.79000000001;;;22.50;62.94
68145;BME280;55400;51.824;-0.196;2023-06-24T09:35:09;101437.73;;;22.60;63.29
68145;BME280;55400;51.824;-0.196;2023-06-24T09:39:09;101434.06;;;22.68;62.54
68145;BME280;55400;51.824;-0.196;2023-06-24T09:43:09;101427.70000000001;;;22.85;62.67
68145;BME280;55400;51.824;-0.196;2023-06-24T09:47:09;101429.61;;;22.97;63.32
68145;BME280;55400;51.824;-0.196;2023-06-24T09:47:28;101429.61;;;22.97;62.17
68145;BME280;55400;51.824;-0.196;2023-06-24T09:51:09;101428.77;;;23.07;62.17
68145;BME280;55400;51.824;-0.196;2023-06-24T09:55:09;101427.85;;;23.14;61.98
68145;BME280;55400;51.824;-0.196;2023-06-24T10:03:09;101421.8;;;23.17;62.15
68145;BME280;55400;51.824;-0.196;2023-06-24T10:07:09;101426.4;;;23.16;61.92
68145;BME280;55400;51.824;-0.196;2023-06-24T10:11:09;101423.04000000001;;;23.17;61.61
68145;BME280;55400;51.824;-0.196;2023-06-24T10:19:09;101408.84;;;23.24;61.43
68145;BME280;55400;51.824;-0.196;2023-06-24T10:23:09;101408.92;;;23.43;61.02
68145;BME280;55400;51.824;-0.196;2023-06-24T10:27:13;101413.34000000001;;;23.62;60.89
68145;BME280;55400;51.824;-0.196;2023-06-24T10:31:09;101409.61;;;23.74;60.47
68145;BME280;55400;51.824;-0.196;2023-06-24T10:39:16;101412.05;;;23.94;59.34
68145;BME280;55400;51.824;-0.196;2023-06-24T10:47:09;101393.19;;;24.13;58.68
68145;BME280;55400;51.824;-0.196;2023-06-24T10:51:09;101386.92;;;24.17;58.12
68145;BME280;55400;51.824;-0.196;2023-06-24T10:59:09;101381.61;;;24.18;58.16
68145;BME280;55400;51.824;-0.196;2023-06-24T11:03:09;101379.03;;;24.13;58.39
68145;BME280;55400;51.824;-0.196;2023-06-24T11:07:09;101377.66;;;24.08;58.27
68145;BME280;55400;51.824;-0.196;2023-06-24T11:11:09;101372.56;;;24.05;58.31
68145;BME280;55400;51.824;-0.196;2023-06-24T11:15:10;101372.56;;;23.98;58.26
68145;BME280;55400;51.824;-0.196;2023-06-24T11:20:10;101363.53;;;23.99;58.36
68145;BME280;55400;51.824;-0.196;2023-06-24T11:23:09;101369.11;;;24.00;58.36
68145;BME280;55400;51.824;-0.196;2023-06-24T11:27:09;101369.11;;;24.01;58.22
68145;BME280;55400;51.824;-0.196;2023-06-24T11:31:09;101372.34;;;24.02;57.83
68145;BME280;55400;51.824;-0.196;2023-06-24T11:35:10;101366.3;;;24.12;57.97
68145;BME280;55400;51.824;-0.196;2023-06-24T11:43:09;101363.01999999999;;;24.28;57.30
68145;BME280;55400;51.824;-0.196;2023-06-24T11:47:10;101357.51000000001;;;24.31;56.90
68145;BME280;55400;51.824;-0.196;2023-06-24T11:51:12;101357.51000000001;;;24.38;56.90
68145;BME280;55400;51.824;-0.196;2023-06-24T11:55:13;101354.69;;;24.46;57.36
68145;BME280;55400;51.824;-0.196;2023-06-24T11:59:15;101347.41;;;24.55;57.02
68145;BME280;55400;51.824;-0.196;2023-06-24T12:03:09;101333.67;;;24.66;56.72
68145;BME280;55400;51.824;-0.196;2023-06-24T12:07:09;101333.67;;;24.83;56.72
68145;BME280;55400;51.824;-0.196;2023-06-24T12:11:09;101324.78;;;24.93;56.39
68145;BME280;55400;51.824;-0.196;2023-06-24T12:15:09;101322.24;;;24.99;55.68
68145;BME280;55400;51.824;-0.196;2023-06-24T12:19:09;101320.04;;;25.08;55.26
68145;BME280;55400;51.824;-0.196;2023-06-24T12:23:09;101320.23000000001;;;25.17;55.59
68145;BME280;55400;51.824;-0.196;2023-06-24T12:27:09;101320.23000000001;;;25.24;55.59
68145;BME280;55400;51.824;-0.196;2023-06-24T12:31:09;101318.31;;;25.36;55.23
68145;BME280;55400;51.824;-0.196;2023-06-24T12:35:09;101314.59;;;25.42;55.07
68145;BME280;55400;51.824;-0.196;2023-06-24T12:39:09;101311.7;;;25.49;54.86
68145;BME280;55400;51.824;-0.196;2023-06-24T12:43:09;101305.3;;;25.54;54.52
68145;BME280;55400;51.824;-0.196;2023-06-24T12:47:09;101305.65000000001;;;25.43;54.19
68145;BME280;55400;51.824;-0.196;2023-06-24T12:51:09;101305.65000000001;;;25.42;53.85
68145;BME280;55400;51.824;-0.196;2023-06-24T12:55:09;101307.82;;;25.26;54.61
68145;BME280;55400;51.824;-0.196;2023-06-24T12:59:09;101308.58;;;25.08;53.74
68145;BME280;55400;51.824;-0.196;2023-06-24T13:03:09;101308.58;;;24.98;53.74
68145;BME280;55400;51.824;-0.196;2023-06-24T13:07:09;101304.75;;;24.93;55.30
68145;BME280;55400;51.824;-0.196;2023-06-24T13:11:09;101300.87;;;24.91;55.19
68145;BME280;55400;51.824;-0.196;2023-06-24T13:15:09;101306.09;;;24.95;54.91
68145;BME280;55400;51.824;-0.196;2023-06-24T13:19:09;101294.29000000001;;;25.04;54.80
68145;BME280;55400;51.824;-0.196;2023-06-24T13:23:09;101301.72;;;25.20;54.80
68145;BME280;55400;51.824;-0.196;2023-06-24T13:27:09;101295.25;;;25.34;53.96
68145;BME280;55400;51.824;-0.196;2023-06-24T13:31:09;101295.25;;;25.50;53.96
68145;BME280;55400;51.824;-0.196;2023-06-24T13:35:09;101291.64;;;25.68;52.96
68145;BME280;55400;51.824;-0.196;2023-06-24T13:39:10;101290.41;;;25.83;51.97
68145;BME280;55400;51.824;-0.196;2023-06-24T13:43:09;101282.74;;;26.02;52.04
68145;BME280;55400;51.824;-0.196;2023-06-24T13:47:09;101282.74;;;26.05;52.04
68145;BME280;55400;51.824;-0.196;2023-06-24T13:51:09;101282.09000000001;;;26.06;51.74
68145;BME280;55400;51.824;-0.196;2023-06-24T13:55:10;101277.47;;;26.10;51.87
68145;BME280;55400;51.824;-0.196;2023-06-24T13:59:09;101268.03;;;26.22;50.96
68145;BME280;55400;51.824;-0.196;2023-06-24T14:03:10;101268.03;;;26.42;51.37
68145;BME280;55400;51.824;-0.196;2023-06-24T14:07:09;101267.33;;;26.40;50.66
68145;BME280;55400;51.824;-0.196;2023-06-24T14:11:10;101266.63;;;26.39;50.98
68145;BME280;55400;51.824;-0.196;2023-06-24T14:19:10;101258.93;;;26.29;50.58
68145;BME280;55400;51.824;-0.196;2023-06-24T14:23:10;101248.49;;;26.28;50.96
68145;BME280;55400;51.824;-0.196;2023-06-24T14:27:10;101245.36;;;26.31;51.21
68145;BME280;55400;51.824;-0.196;2023-06-24T14:31:09;101244.19;;;26.38;51.20
68145;BME280;55400;51.824;-0.196;2023-06-24T14:35:10;101243.93;;;26.45;51.57
68145;BME280;55400;51.824;-0.196;2023-06-24T14:39:13;101243.93;;;26.52;51.22
68145;BME280;55400;51.824;-0.196;2023-06-24T14:43:10;101237.69;;;26.62;51.19
68145;BME280;55400;51.824;-0.196;2023-06-24T14:47:10;101237.69;;;26.75;50.49
68145;BME280;55400;51.824;-0.196;2023-06-24T14:51:10;101231.0;;;26.82;50.45
68145;BME280;55400;51.824;-0.196;2023-06-24T14:59:10;101224.55;;;26.85;49.42
68145;BME280;55400;51.824;-0.196;2023-06-24T15:03:10;101223.71;;;26.89;49.00
68145;BME280;55400;51.824;-0.196;2023-06-24T15:07:10;101223.81;;;26.91;49.06
68145;BME280;55400;51.824;-0.196;2023-06-24T15:11:10;101221.3;;;27.03;49.06
68145;BME280;55400;51.824;-0.196;2023-06-24T15:15:10;101221.3;;;27.20;48.96
68145;BME280;55400;51.824;-0.196;2023-06-24T15:19:10;101208.54000000001;;;27.59;49.14
68145;BME280;55400;51.824;-0.196;2023-06-24T15:23:10;101208.54000000001;;;27.98;48.76
68145;BME280;55400;51.824;-0.196;2023-06-24T15:27:10;101202.20000000001;;;28.26;47.22
68145;BME280;55400;51.824;-0.196;2023-06-24T15:31:10;101184.44;;;28.46;46.34
68145;BME280;55400;51.824;-0.196;2023-06-24T15:35:10;101184.44;;;28.65;46.34
68145;BME280;55400;51.824;-0.196;2023-06-24T15:39:10;101172.13;;;28.90;46.19
68145;BME280;55400;51.824;-0.196;2023-06-24T15:43:10;101172.13;;;29.13;46.20
68145;BME280;55400;51.824;-0.196;2023-06-24T15:47:10;101175.19;;;28.85;45.88
68145;BME280;55400;51.824;-0.196;2023-06-24T15:51:10;101173.67;;;28.75;44.87
68145;BME280;55400;51.824;-0.196;2023-06-24T15:55:10;101170.0;;;28.73;45.67
68145;BME280;55400;51.824;-0.196;2023-06-24T15:59:10;101166.54999999999;;;28.83;45.49
68145;BME280;55400;51.824;-0.196;2023-06-24T16:03:10;101162.41;;;28.99;45.24
68145;BME280;55400;51.824;-0.196;2023-06-24T16:07:10;101159.52;;;28.76;44.59
68145;BME280;55400;51.824;-0.196;2023-06-24T16:11:10;101158.03;;;28.53;45.24
68145;BME280;55400;51.824;-0.196;2023-06-24T16:15:10;101158.03;;;28.41;45.04
68145;BME280;55400;51.824;-0.196;2023-06-24T16:19:10;101151.95;;;28.28;45.70
68145;BME280;55400;51.824;-0.196;2023-06-24T16:23:10;101151.95;;;28.16;45.70
68145;BME280;55400;51.824;-0.196;2023-06-24T16:27:10;101134.59;;;28.07;45.33
68145;BME280;55400;51.824;-0.196;2023-06-24T16:31:10;101134.59;;;28.03;45.33
68145;BME280;55400;51.824;-0.196;2023-06-24T16:35:10;101130.89;;;28.01;46.21
68145;BME280;55400;51.824;-0.196;2023-06-24T16:39:10;101125.75;;;28.33;46.21
68145;BME280;55400;51.824;-0.196;2023-06-24T16:43:10;101125.75;;;28.76;45.96
68145;BME280;55400;51.824;-0.196;2023-06-24T16:47:10;101121.92;;;28.84;44.76
68145;BME280;55400;51.824;-0.196;2023-06-24T16:51:10;101118.74;;;28.99;44.78
68145;BME280;55400;51.824;-0.196;2023-06-24T16:55:10;101112.15999999999;;;29.03;44.12
68145;BME280;55400;51.824;-0.196;2023-06-24T16:59:10;101117.22;;;28.94;44.77
68145;BME280;55400;51.824;-0.196;2023-06-24T17:03:10;101117.22;;;29.11;44.77
68145;BME280;55400;51.824;-0.196;2023-06-24T17:07:10;101104.33;;;29.06;44.12
68145;BME280;55400;51.824;-0.196;2023-06-24T17:11:10;101104.63;;;29.12;44.53
68145;BME280;55400;51.824;-0.196;2023-06-24T17:15:10;101095.0;;;29.29;43.76
68145;BME280;55400;51.824;-0.196;2023-06-24T17:19:10;101095.0;;;29.07;43.76
68145;BME280;55400;51.824;-0.196;2023-06-24T17:23:10;101094.64;;;28.98;43.04
68145;BME280;55400;51.824;-0.196;2023-06-24T17:27:10;101094.64;;;28.83;43.94
68145;BME280;55400;51.824;-0.196;2023-06-24T17:31:10;101090.62;;;28.67;44.12
68145;BME280;55400;51.824;-0.196;2023-06-24T17:35:10;101090.62;;;28.51;44.02
68145;BME280;55400;51.824;-0.196;2023-06-24T17:39:10;101085.31;;;28.39;43.81
68145;BME280;55400;51.824;-0.196;2023-06-24T17:43:10;101085.31;;;28.26;44.15
68145;BME280;55400;51.824;-0.196;2023-06-24T17:47:10;101084.11;;;28.18;44.85
68145;BME280;55400;51.824;-0.196;2023-06-24T17:55:10;101073.94;;;28.25;45.18
68145;BME280;55400;51.824;-0.196;2023-06-24T17:59:10;101075.64;;;28.39;45.18
68145;BME280;55400;51.824;-0.196;2023-06-24T18:03:10;101075.64;;;28.54;45.13
68145;BME280;55400;51.824;-0.196;2023-06-24T18:07:10;101074.64;;;28.60;44.26
68145;BME280;55400;51.824;-0.196;2023-06-24T18:11:10;101074.64;;;28.88;44.26
68145;BME280;55400;51.824;-0.196;2023-06-24T18:15:10;101072.25;;;29.31;44.39
68145;BME280;55400;51.824;-0.196;2023-06-24T18:19:10;101069.36;;;29.65;43.24
68145;BME280;55400;51.824;-0.196;2023-06-24T18:23:10;101069.36;;;29.84;42.64
68145;BME280;55400;51.824;-0.196;2023-06-24T18:27:10;101062.34;;;29.68;42.20
68145;BME280;55400;51.824;-0.196;2023-06-24T18:31:10;101058.68000000001;;;29.46;42.67
68145;BME280;55400;51.824;-0.196;2023-06-24T18:35:10;101054.86;;;29.28;43.26
68145;BME280;55400;51.824;-0.196;2023-06-24T18:39:10;101046.89;;;29.07;43.26
68145;BME280;55400;51.824;-0.196;2023-06-24T18:43:10;101046.89;;;28.98;43.97
68145;BME280;55400;51.824;-0.196;2023-06-24T18:47:10;101041.61;;;28.97;44.12
68145;BME280;55400;51.824;-0.196;2023-06-24T18:51:10;101041.61;;;28.96;44.12
68145;BME280;55400;51.824;-0.196;2023-06-24T18:55:10;101038.34000000001;;;28.84;44.89
68145;BME280;55400;51.824;-0.196;2023-06-24T18:59:10;101032.26;;;28.71;44.89
68145;BME280;55400;51.824;-0.196;2023-06-24T19:03:10;101032.65;;;28.62;45.56
68145;BME280;55400;51.824;-0.196;2023-06-24T19:07:10;101032.65;;;28.47;45.56
68145;BME280;55400;51.824;-0.196;2023-06-24T19:11:10;101036.78;;;28.26;45.52
68145;BME280;55400;51.824;-0.196;2023-06-24T19:15:11;101035.38;;;28.04;45.71
68145;BME280;55400;51.824;-0.196;2023-06-24T19:19:10;101039.73;;;27.90;46.26
68145;BME280;55400;51.824;-0.196;2023-06-24T19:23:11;101043.61;;;27.78;46.49
68145;BME280;55400;51.824;-0.196;2023-06-24T19:27:10;101043.61;;;27.65;46.49
68145;BME280;55400;51.824;-0.196;2023-06-24T19:31:10;101040.86;;;27.54;46.91
68145;BME280;55400;51.824;-0.196;2023-06-24T19:35:10;101038.51;;;27.44;47.36
68145;BME280;55400;51.824;-0.196;2023-06-24T19:39:11;101035.06;;;27.31;47.69
68145;BME280;55400;51.824;-0.196;2023-06-24T19:43:10;101025.42;;;27.21;48.31
68145;BME280;55400;51.824;-0.196;2023-06-24T19:47:11;101025.42;;;27.08;48.31
68145;BME280;55400;51.824;-0.196;2023-06-24T19:51:10;101021.22;;;26.98;48.54
68145;BME280;55400;51.824;-0.196;2023-06-24T19:55:10;101022.75;;;26.85;48.72
68145;BME280;55400;51.824;-0.196;2023-06-24T19:59:10;101025.01999999999;;;26.68;49.74
68145;BME280;55400;51.824;-0.196;2023-06-24T20:03:10;101025.01999999999;;;26.51;49.74
68145;BME280;55400;51.824;-0.196;2023-06-24T20:07:11;101020.79;;;26.40;50.46
68145;BME280;55400;51.824;-0.196;2023-06-24T20:11:11;101025.15;;;26.30;51.15
68145;BME280;55400;51.824;-0.196;2023-06-24T20:15:10;101025.15;;;26.18;51.15
68145;BME280;55400;51.824;-0.196;2023-06-24T20:19:11;101023.01999999999;;;26.07;51.68
68145;BME280;55400;51.824;-0.196;2023-06-24T20:23:11;101010.78;;;25.99;51.65
68145;BME280;55400;51.824;-0.196;2023-06-24T20:27:11;101010.78;;;25.89;51.65
68145;BME280;55400;51.824;-0.196;2023-06-24T20:31:11;101012.91;;;25.79;51.64
68145;BME280;55400;51.824;-0.196;2023-06-24T20:35:11;101011.99;;;25.70;51.59
68145;BME280;55400;51.824;-0.196;2023-06-24T20:39:11;101010.93;;;25.62;51.52
68145;BME280;55400;51.824;-0.196;2023-06-24T20:43:11;101010.93;;;25.55;51.52
68145;BME280;55400;51.824;-0.196;2023-06-24T20:47:11;101002.86;;;25.49;51.55
68145;BME280;55400;51.824;-0.196;2023-06-24T20:51:11;101002.22;;;25.43;51.64
68145;BME280;55400;51.824;-0.196;2023-06-24T20:55:11;101002.22;;;25.41;51.70
68145;BME280;55400;51.824;-0.196;2023-06-24T20:59:45;101007.9;;;25.38;51.94
68145;BME280;55400;51.824;-0.196;2023-06-24T21:03:11;101011.92;;;25.29;52.22
68145;BME280;55400;51.824;-0.196;2023-06-24T21:07:11;101016.04999999999;;;24.99;53.00
68145;BME280;55400;51.824;-0.196;2023-06-24T21:11:11;101016.04999999999;;;24.81;53.00
68145;BME280;55400;51.824;-0.196;2023-06-24T21:15:11;101007.37000000001;;;24.74;53.58
68145;BME280;55400;51.824;-0.196;2023-06-24T21:19:11;101011.03;;;24.66;53.73
68145;BME280;55400;51.824;-0.196;2023-06-24T21:27:11;101003.53;;;24.61;54.16